RKSO

Osan Air Base Airport

South Korea
TAF RKSO 161900Z 1619/1801 VRB06KT 9999 FEW010 QNH2990INS TEMPO 1620/1623 4800 BR BECMG 1703/1704 27009KT 9999 SCT030 QNH2990INS BECMG 1718/1719 VRB06KT 6000 BR BKN010 QNH2994INS TX31/1705Z TN22/1715Z
Issued Valid From Valid To
Jul-16 @ 19:00 UTC
(59 minutes ago)
Jul-16 @ 19:00 UTC
(59 minutes ago)
Jul-18 @ 01:00 UTC
(-1 days ago)
Jul-16 @ 19:00 to Jul-17 @ 03:00
TAF RKSO 161900Z 1619/1801 VRB06KT 9999 FEW010 QNH2990INS
Wind Visibility Clouds Readings
Variable at 6 knots 10,000+ meters
  • Few at 1,000' AGL
Altimeter 29.91" Hg
Pressure 1013 hPa
Temporary Jul-16 @ 20:00 to Jul-16 @ 23:00
TEMPO 1620/1623 4800 BR
Visibility Conditions
4,796 meters
  • Mist
Becoming Jul-17 @ 03:00 to Jul-17 @ 18:00
BECMG 1703/1704 27009KT 9999 SCT030 QNH2990INS
Wind Visibility Clouds Readings
270° at 9 knots 10,000+ meters
  • Scattered at 3,000' AGL
Altimeter 29.91" Hg
Pressure 1013 hPa
Becoming Jul-17 @ 18:00 to Jul-18 @ 01:00
BECMG 1718/1719 VRB06KT 6000 BR BKN010 QNH2994INS TX31/1705Z TN22/1715Z
Wind Visibility Clouds Conditions Readings
Variable at 6 knots 6,003 meters
  • Broken at 1,000' AGL
  • Mist
Altimeter 29.94" Hg
Pressure 1014 hPa
TAF RKSO 161900Z 1619/1801 VRB06KT 9999 FEW010 QNH2990INS TEMPO 1620/1623 4800 BR BECMG 1703/1704 27009KT 9999 SCT030 QNH2990INS BECMG 1718/1719 VRB06KT 6000 BR BKN010 QNH2994INS TX31/1705Z TN22/1715Z
Issued Jul-16 @ 19:00 UTC
(59 minutes ago)
Valid From Jul-16 @ 19:00 UTC
(59 minutes ago)
Valid To Jul-18 @ 01:00 UTC
(-1 days ago)
Jul-16 @ 19:00 - Jul-17 @ 03:00
Wind Visibility
Variable at 6 knots 10,000+ meters
Clouds
  • Few at 1,000' AGL
Temporary Jul-16 @ 20:00 - Jul-16 @ 23:00
Conditions
  • Mist
Becoming Jul-17 @ 03:00 - Jul-17 @ 18:00
Wind Visibility
270° at 9 knots 10,000+ meters
Clouds
  • Scattered at 3,000' AGL
Becoming Jul-17 @ 18:00 - Jul-18 @ 01:00
Wind Visibility
Variable at 6 knots 6,003 meters
Clouds
  • Broken at 1,000' AGL
Conditions
  • Mist